| time (UTC) | temp F | wind direction | speed knots | gust knots | rain 1hr in | rain 24hr in | rain mn in | humidity % | barometer mb |
| 20260506033744 | 68 | 350 | 0.9 | 4.3 | 0.00 | 0.00 | 0.00 | 46 | 966.6 |
| 20260506033245 | 68 | 294 | 0.9 | 4.3 | 0.00 | 0.00 | 0.00 | 46 | 960.0 |
| 20260506032746 | 68 | 335 | 0.9 | 3.5 | 0.00 | 0.00 | 0.00 | 46 | 970.4 |
| 20260506032244 | 68 | 323 | 1.7 | 5.2 | 0.00 | 0.00 | 0.00 | 46 | 962.5 |
| 20260506031745 | 69 | 330 | 1.7 | 6.1 | 0.00 | 0.00 | 0.00 | 45 | 974.0 |
| 20260506031244 | 69 | 307 | 1.7 | 6.1 | 0.00 | 0.00 | 0.00 | 44 | 939.3 |
| 20260506030744 | 69 | 290 | 1.7 | 5.2 | 0.00 | 0.00 | 0.00 | 44 | 929.1 |
| 20260506030245 | 69 | 324 | 2.6 | 6.1 | 0.00 | 0.00 | 0.00 | 44 | 924.4 |
| 20260506025744 | 70 | 2 | 2.6 | 6.1 | 0.00 | 0.00 | 0.00 | 44 | 951.9 |
| 20260506025233 | 70 | 321 | 2.6 | 7.8 | 0.00 | 0.00 | 0.00 | 44 | 951.8 |
| 20260506024732 | 70 | 346 | 3.5 | 7.8 | 0.00 | 0.00 | 0.00 | 43 | 953.5 |
| 20260506024233 | 71 | 327 | 3.5 | 11.3 | 0.00 | 0.00 | 0.00 | 42 | 951.8 |
| 20260506023732 | 71 | 317 | 3.5 | 11.3 | 0.00 | 0.00 | 0.00 | 41 | 920.6 |
| 20260506023235 | 72 | 328 | 3.5 | 8.7 | 0.00 | 0.00 | 0.00 | 40 | 889.4 |
| 20260506022735 | 72 | 282 | 4.3 | 8.7 | 0.00 | 0.00 | 0.00 | 41 | 910.8 |
| 20260506022507 | 72 | 315 | 4.3 | 9.6 | 0.00 | 0.00 | 0.00 | 40 | 937.0 |
| 20260506021735 | 71 | 315 | 4.3 | 9.6 | 0.00 | 0.00 | 0.00 | 40 | 955.3 |
| 20260506021228 | 71 | 317 | 3.5 | 9.6 | 0.00 | 0.00 | 0.00 | 40 | 952.0 |
| 20260506020721 | 72 | 327 | 2.6 | 7.8 | 0.00 | 0.00 | 0.00 | 39 | 954.4 |
| 20260506020211 | 72 | 268 | 2.6 | 6.1 | 0.00 | 0.00 | 0.00 | 39 | 968.5 |
| 20260506015701 | 73 | 323 | 3.5 | 9.6 | 0.00 | 0.00 | 0.00 | 38 | 960.2 |
| 20260506015155 | 74 | 267 | 4.3 | 9.6 | 0.00 | 0.00 | 0.00 | 36 | 972.6 |
| 20260506014649 | 75 | 321 | 2.6 | 7.0 | 0.00 | 0.00 | 0.00 | 38 | 965.2 |
| 20260506014140 | 75 | 335 | 2.6 | 7.0 | 0.00 | 0.00 | 0.00 | 38 | 968.3 |
| 20260506013856 | 74 | 320 | 4.3 | 12.2 | 0.00 | 0.00 | 0.00 | 38 | 966.4 |
| 20260506013731 | 75 | 332 | 3.5 | 8.7 | 0.00 | 0.00 | 0.00 | 38 | 981.2 |
| 20260506012844 | 74 | 327 | 5.2 | 12.2 | 0.00 | 0.00 | 0.00 | 39 | 956.6 |
| 20260506012107 | 74 | 350 | 5.2 | 10.4 | 0.00 | 0.00 | 0.00 | 39 | 949.4 |
| 20260506011600 | 73 | 308 | 6.1 | 14.8 | 0.00 | 0.00 | 0.00 | 40 | 957.4 |
| 20260506011324 | 74 | 324 | 7.0 | 14.8 | 0.00 | 0.00 | 0.00 | 38 | 958.4 |
| 20260506010546 | 75 | 323 | 4.3 | 10.4 | 0.00 | 0.00 | 0.00 | 36 | 959.2 |
| 20260506010036 | 76 | 278 | 4.3 | 7.8 | 0.00 | 0.00 | 0.00 | 35 | 964.2 |
| 20260506005526 | 76 | 326 | 4.3 | 9.6 | 0.00 | 0.00 | 0.00 | 35 | 975.9 |
| 20260506005015 | 75 | 302 | 5.2 | 13.0 | 0.00 | 0.00 | 0.00 | 35 | 975.4 |
| 20260506004743 | 76 | 13 | 4.3 | 13.0 | 0.00 | 0.00 | 0.00 | 33 | 953.8 |
| 20260506004000 | 78 | 318 | 3.5 | 7.8 | 0.00 | 0.00 | 0.00 | 31 | 972.5 |
| 20260506003450 | 79 | 313 | 3.5 | 8.7 | 0.00 | 0.00 | 0.00 | 30 | 968.3 |
| 20260506002940 | 79 | 36 | 3.5 | 8.7 | 0.00 | 0.00 | 0.00 | 30 | 975.7 |
| 20260506002430 | 78 | 53 | 2.6 | 8.7 | 0.00 | 0.00 | 0.00 | 31 | 979.4 |
| 20260506002155 | 78 | 44 | 2.6 | 7.0 | 0.00 | 0.00 | 0.00 | 30 | 986.8 |
| 20260506001648 | 77 | 328 | 4.3 | 9.6 | 0.00 | 0.00 | 0.00 | 31 | 1002.4 |
| 20260506000907 | 77 | 88 | 3.5 | 9.6 | 0.00 | 0.00 | 0.00 | 30 | 1006.4 |
| 20260506000358 | 78 | 42 | 1.7 | 5.2 | 0.00 | 0.00 | 0.00 | 29 | 1009.5 |
| 20260505235847 | 79 | 332 | 2.6 | 7.0 | 0.00 | 0.00 | 0.00 | 27 | 999.9 |
| 20260505235342 | 81 | 342 | 3.5 | 9.6 | 0.00 | 0.00 | 0.00 | 26 | 1011.3 |
| 20260505234836 | 83 | 56 | 3.5 | 9.6 | 0.00 | 0.00 | 0.00 | 26 | 1009.4 |
| 20260505234330 | 83 | 79 | 2.6 | 9.6 | 0.00 | 0.00 | 0.00 | 26 | 1006.9 |
| 20260505233820 | 82 | 78 | 3.5 | 7.8 | 0.00 | 0.00 | 0.00 | 26 | 1013.0 |
| 20260505233309 | 82 | 28 | 3.5 | 8.7 | 0.00 | 0.00 | 0.00 | 27 | 1013.0 |
| 20260505232804 | 82 | 346 | 3.5 | 7.8 | 0.00 | 0.00 | 0.00 | 27 | 1012.5 |
| 20260505232258 | 81 | 10 | 2.6 | 7.8 | 0.00 | 0.00 | 0.00 | 28 | 1013.0 |
| 20260505231755 | 80 | 44 | 2.6 | 7.0 | 0.00 | 0.00 | 0.00 | 28 | 1013.0 |
| 20260505231256 | 80 | 53 | 3.5 | 8.7 | 0.00 | 0.00 | 0.00 | 28 | 1013.0 |
| 20260505230753 | 80 | 352 | 4.3 | 10.4 | 0.00 | 0.00 | 0.00 | 28 | 1012.6 |
| 20260505230525 | 80 | 311 | 3.5 | 10.4 | 0.00 | 0.00 | 0.00 | 28 | 1012.5 |
| 20260505225753 | 80 | 82 | 2.6 | 10.4 | 0.00 | 0.00 | 0.00 | 28 | 1013.0 |
| 20260505225254 | 80 | 38 | 2.6 | 10.4 | 0.00 | 0.00 | 0.00 | 28 | 1013.1 |
| 20260505225025 | 80 | 39 | 3.5 | 8.7 | 0.00 | 0.00 | 0.00 | 27 | 1013.0 |
| 20260505224257 | 80 | 24 | 3.5 | 9.6 | 0.00 | 0.00 | 0.00 | 28 | 1013.1 |
| 20260505223753 | 80 | 291 | 3.5 | 9.6 | 0.00 | 0.00 | 0.00 | 29 | 1013.1 |
| 20260505223254 | 79 | 348 | 3.5 | 7.8 | 0.00 | 0.00 | 0.00 | 27 | 1013.1 |
| 20260505222741 | 79 | 1 | 3.5 | 7.8 | 0.00 | 0.00 | 0.00 | 28 | 1013.2 |
| 20260505222229 | 79 | 48 | 3.5 | 7.8 | 0.00 | 0.00 | 0.00 | 28 | 1013.2 |
| 20260505221717 | 80 | 37 | 3.5 | 7.8 | 0.00 | 0.00 | 0.00 | 27 | 1013.2 |
| 20260505221210 | 80 | 40 | 2.6 | 7.8 | 0.00 | 0.00 | 0.00 | 27 | 1013.2 |
| 20260505220709 | 79 | 336 | 2.6 | 7.8 | 0.00 | 0.00 | 0.00 | 29 | 1013.2 |
| 20260505220210 | 79 | 324 | 2.6 | 8.7 | 0.00 | 0.00 | 0.00 | 28 | 1013.3 |
| 20260505215709 | 79 | 352 | 1.7 | 8.7 | 0.00 | 0.00 | 0.00 | 29 | 1013.3 |
| 20260505215214 | 79 | 47 | 3.5 | 7.8 | 0.00 | 0.00 | 0.00 | 29 | 1013.3 |
| 20260505215210 | 79 | 325 | 2.6 | 7.8 | 0.00 | 0.00 | 0.00 | 28 | 1013.2 |
| 20260505214210 | 78 | 319 | 3.5 | 7.8 | 0.00 | 0.00 | 0.00 | 29 | 1013.3 |
| 20260505213712 | 78 | 28 | 2.6 | 7.8 | 0.00 | 0.00 | 0.00 | 29 | 1013.4 |
| 20260505213202 | 78 | 83 | 1.7 | 7.0 | 0.00 | 0.00 | 0.00 | 30 | 1013.5 |
| 20260505212654 | 78 | 24 | 1.7 | 7.0 | 0.00 | 0.00 | 0.00 | 29 | 1013.4 |
| 20260505212150 | 78 | 51 | 2.6 | 7.0 | 0.00 | 0.00 | 0.00 | 29 | 1013.5 |
| 20260505211643 | 78 | 61 | 3.5 | 7.8 | 0.00 | 0.00 | 0.00 | 29 | 1013.6 |
| 20260505211415 | 78 | 44 | 3.5 | 8.7 | 0.00 | 0.00 | 0.00 | 29 | 1013.5 |
| 20260505210641 | 78 | 42 | 3.5 | 9.6 | 0.00 | 0.00 | 0.00 | 29 | 1013.5 |
| 20260505210141 | 78 | 322 | 3.5 | 9.6 | 0.00 | 0.00 | 0.00 | 29 | 1013.5 |
| 20260505205641 | 78 | 34 | 2.6 | 7.8 | 0.00 | 0.00 | 0.00 | 29 | 1013.5 |
| 20260505205139 | 78 | 65 | 2.6 | 7.8 | 0.00 | 0.00 | 0.00 | 30 | 1013.5 |
| 20260505204639 | 77 | 14 | 3.5 | 7.8 | 0.00 | 0.00 | 0.00 | 29 | 1013.5 |
| 20260505204139 | 78 | 340 | 2.6 | 7.8 | 0.00 | 0.00 | 0.00 | 31 | 1013.6 |
| 20260505203637 | 77 | 43 | 2.6 | 6.1 | 0.00 | 0.00 | 0.00 | 31 | 1013.5 |
| 20260505203135 | 77 | 22 | 3.5 | 7.8 | 0.00 | 0.00 | 0.00 | 30 | 1013.5 |
| 20260505202636 | 78 | 59 | 2.6 | 7.8 | 0.00 | 0.00 | 0.00 | 31 | 1013.5 |
| 20260505202407 | 78 | 293 | 2.6 | 6.1 | 0.00 | 0.00 | 0.00 | 31 | 1013.6 |
| 20260505201635 | 78 | 334 | 2.6 | 6.1 | 0.00 | 0.00 | 0.00 | 31 | 1013.6 |
| 20260505201131 | 77 | 327 | 2.6 | 6.1 | 0.00 | 0.00 | 0.00 | 32 | 1013.6 |
| 20260505200624 | 77 | 54 | 2.6 | 6.1 | 0.00 | 0.00 | 0.00 | 32 | 1013.8 |
| 20260505200118 | 77 | 88 | 2.6 | 7.0 | 0.00 | 0.00 | 0.00 | 31 | 1013.8 |
| 20260505195612 | 77 | 89 | 2.6 | 7.0 | 0.00 | 0.00 | 0.00 | 33 | 1013.8 |
| 20260505195106 | 77 | 318 | 2.6 | 7.8 | 0.00 | 0.00 | 0.00 | 32 | 1013.8 |
| 20260505194826 | 76 | 34 | 3.5 | 7.8 | 0.00 | 0.00 | 0.00 | 34 | 1013.9 |
| 20260505194047 | 76 | 67 | 2.6 | 7.0 | 0.00 | 0.00 | 0.00 | 34 | 1013.9 |
| 20260505194037 | 76 | 83 | 2.6 | 7.8 | 0.00 | 0.00 | 0.00 | 35 | 1013.9 |
| 20260505193032 | 76 | 352 | 2.6 | 7.8 | 0.00 | 0.00 | 0.00 | 34 | 1013.8 |
| 20260505192533 | 75 | 312 | 2.6 | 12.2 | 0.00 | 0.00 | 0.00 | 35 | 1013.9 |
| 20260505192033 | 75 | 90 | 2.6 | 12.2 | 0.00 | 0.00 | 0.00 | 35 | 1013.9 |
| 20260505191531 | 74 | 45 | 2.6 | 5.2 | 0.00 | 0.00 | 0.00 | 36 | 1013.9 |
| 20260505191029 | 74 | 59 | 1.7 | 4.3 | 0.00 | 0.00 | 0.00 | 37 | 1013.9 |
| 20260505190529 | 74 | 34 | 1.7 | 7.0 | 0.00 | 0.00 | 0.00 | 38 | 1013.9 |
| 20260505190259 | 74 | 354 | 2.6 | 7.0 | 0.00 | 0.00 | 0.00 | 37 | 1014.0 |
| 20260505185527 | 74 | 80 | 1.7 | 7.0 | 0.00 | 0.00 | 0.00 | 37 | 1013.9 |
| 20260505185027 | 74 | 316 | 1.7 | 6.1 | 0.00 | 0.00 | 0.00 | 37 | 1013.9 |
| 20260505184529 | 73 | 352 | 1.7 | 6.1 | 0.00 | 0.00 | 0.00 | 38 | 1014.0 |
| 20260505184257 | 73 | 352 | 1.7 | 6.1 | 0.00 | 0.00 | 0.00 | 38 | 1014.0 |
| 20260505183759 | 73 | 342 | 1.7 | 6.1 | 0.00 | 0.00 | 0.00 | 37 | 1014.0 |
| 20260505183636 | 72 | 35 | 1.7 | 5.2 | 0.00 | 0.00 | 0.00 | 39 | 1013.9 |
| 20260505183027 | 73 | 42 | 1.7 | 5.2 | 0.00 | 0.00 | 0.00 | 37 | 1014.0 |
| 20260505182013 | 71 | 73 | 2.6 | 5.2 | 0.00 | 0.00 | 0.00 | 38 | 1013.9 |
| 20260505181737 | 71 | 339 | 2.6 | 6.1 | 0.00 | 0.00 | 0.00 | 38 | 1014.0 |
| 20260505180955 | 71 | 315 | 2.6 | 6.1 | 0.00 | 0.00 | 0.00 | 38 | 1013.9 |
| 20260505180455 | 70 | 310 | 1.7 | 5.2 | 0.00 | 0.00 | 0.00 | 39 | 1013.9 |
| 20260505175955 | 69 | 58 | 0.9 | 5.2 | 0.00 | 0.00 | 0.00 | 41 | 1014.0 |
| 20260505175455 | 69 | 350 | 1.7 | 5.2 | 0.00 | 0.00 | 0.00 | 41 | 1014.0 |
| 20260505174954 | 69 | 353 | 1.7 | 4.3 | 0.00 | 0.00 | 0.00 | 41 | 1014.0 |
| 20260505174455 | 68 | 273 | 1.7 | 3.5 | 0.00 | 0.00 | 0.00 | 42 | 1014.0 |
| 20260505173954 | 67 | 66 | 1.7 | 4.3 | 0.00 | 0.00 | 0.00 | 43 | 1013.9 |
| 20260505173835 | 65 | 125 | 0.9 | 4.3 | 0.00 | 0.00 | 0.00 | 46 | 1013.9 |
| 20260505173728 | 67 | 45 | 1.7 | 4.3 | 0.00 | 0.00 | 0.00 | 43 | 1013.9 |
| 20260505172957 | 66 | 319 | 0.9 | 3.5 | 0.00 | 0.00 | 0.00 | 44 | 1013.9 |
| 20260505171943 | 64 | 340 | 0.9 | 4.3 | 0.00 | 0.00 | 0.00 | 48 | 1013.9 |
| 20260505171436 | 63 | 345 | 1.7 | 4.3 | 0.00 | 0.00 | 0.00 | 48 | 1013.9 |
| 20260505171432 | 64 | 262 | 0.9 | 3.5 | 0.00 | 0.00 | 0.00 | 46 | 1013.9 |
| 20260505170433 | 63 | 316 | 1.7 | 4.3 | 0.00 | 0.00 | 0.00 | 48 | 1013.9 |
| 20260505170203 | 62 | 19 | 0.9 | 3.5 | 0.00 | 0.00 | 0.00 | 49 | 1013.9 |
| 20260505165432 | 62 | 309 | 1.7 | 4.3 | 0.00 | 0.00 | 0.00 | 51 | 1013.9 |
| 20260505164935 | 61 | 256 | 1.7 | 4.3 | 0.00 | 0.00 | 0.00 | 51 | 1014.0 |
| 20260505164434 | 61 | 294 | 0.9 | 3.5 | 0.00 | 0.00 | 0.00 | 50 | 1014.0 |
| 20260505163934 | 61 | 333 | 0.9 | 4.3 | 0.00 | 0.00 | 0.00 | 49 | 1014.0 |
| 20260505163426 | 61 | 317 | 1.7 | 4.3 | 0.00 | 0.00 | 0.00 | 49 | 1014.0 |
| 20260505162920 | 61 | 78 | 1.7 | 3.5 | 0.00 | 0.00 | 0.00 | 49 | 1014.0 |
| 20260505162410 | 61 | 338 | 0.9 | 2.6 | 0.00 | 0.00 | 0.00 | 51 | 1014.0 |
| 20260505162402 | 60 | 275 | 0.9 | 3.5 | 0.00 | 0.00 | 0.00 | 53 | 1014.0 |
| 20260505161349 | 59 | 311 | 0.9 | 3.5 | 0.00 | 0.00 | 0.00 | 55 | 1013.9 |
| 20260505160844 | 59 | 279 | 0.9 | 2.6 | 0.00 | 0.00 | 0.00 | 56 | 1013.9 |
| 20260505160334 | 58 | 282 | 0.9 | 2.6 | 0.00 | 0.00 | 0.00 | 57 | 1013.9 |
| 20260505153240 | 54 | 136 | 0.0 | 2.6 | 0.00 | 0.00 | 0.00 | 64 | 1013.9 |
| 20260505153011 | 53 | 184 | 0.0 | 2.6 | 0.00 | 0.00 | 0.00 | 66 | 1013.9 |
| 20260505152240 | 53 | 194 | 0.0 | 0.0 | 0.00 | 0.00 | 0.00 | 67 | 1013.9 |
| 20260505151738 | 53 | 193 | 0.0 | 0.0 | 0.00 | 0.00 | 0.00 | 66 | 1013.9 |
| 20260505151510 | 53 | 256 | 0.0 | 0.0 | 0.00 | 0.00 | 0.00 | 65 | 1013.8 |
| 20260505150738 | 53 | 281 | 0.0 | 0.0 | 0.00 | 0.00 | 0.00 | 65 | 1013.8 |
| 20260505150236 | 53 | 281 | 0.0 | 0.0 | 0.00 | 0.00 | 0.00 | 64 | 1013.8 |
| 20260505140419 | 50 | 184 | 3.5 | 6.1 | 0.00 | 0.00 | 0.00 | 67 | 1013.0 |
| 20260505124557 | 49 | 194 | 0.0 | 0.0 | 0.00 | 0.00 | 0.00 | 69 | 1012.4 |
| 20260505124043 | 49 | 179 | 0.0 | 0.0 | 0.00 | 0.00 | 0.00 | 69 | 1012.4 |
| 20260505123534 | 49 | 179 | 0.0 | 0.0 | 0.00 | 0.00 | 0.00 | 68 | 1012.4 |
| 20260505123033 | 49 | 179 | 0.0 | 0.0 | 0.00 | 0.00 | 0.00 | 68 | 1012.3 |
| 20260505122539 | 49 | 179 | 0.0 | 0.0 | 0.00 | 0.00 | 0.00 | 66 | 1012.3 |
| 20260505122535 | 49 | 179 | 0.0 | 0.0 | 0.00 | 0.00 | 0.00 | 68 | 1012.3 |
| 20260505121536 | 49 | 179 | 0.0 | 0.0 | 0.00 | 0.00 | 0.00 | 66 | 1012.3 |
| 20260505121308 | 49 | 179 | 0.0 | 0.0 | 0.00 | 0.00 | 0.00 | 65 | 1012.2 |
| 20260505120538 | 49 | 188 | 0.0 | 0.0 | 0.00 | 0.00 | 0.00 | 64 | 1012.2 |
| 20260505120534 | 49 | 179 | 0.0 | 0.0 | 0.00 | 0.00 | 0.00 | 63 | 1012.3 |
| 20260505115526 | 50 | 150 | 0.0 | 0.0 | 0.00 | 0.00 | 0.00 | 63 | 1012.3 |
| 20260505115020 | 50 | 184 | 0.0 | 0.0 | 0.00 | 0.00 | 0.00 | 63 | 1012.2 |
| 20260505114517 | 50 | 184 | 0.0 | 0.0 | 0.00 | 0.00 | 0.00 | 63 | 1012.2 |
| 20260505114018 | 50 | 184 | 0.0 | 0.0 | 0.00 | 0.00 | 0.00 | 62 | 1012.2 |
| 20260505113517 | 51 | 146 | 0.0 | 0.0 | 0.00 | 0.00 | 0.00 | 61 | 1012.2 |
| 20260505113017 | 51 | 164 | 0.0 | 0.0 | 0.00 | 0.00 | 0.00 | 62 | 1012.2 |
| 20260505112517 | 51 | 164 | 0.0 | 0.0 | 0.00 | 0.00 | 0.00 | 61 | 1012.2 |
| 20260505112015 | 51 | 125 | 0.0 | 0.9 | 0.00 | 0.00 | 0.00 | 61 | 1012.2 |
| 20260505111515 | 52 | 125 | 0.9 | 2.6 | 0.00 | 0.00 | 0.00 | 60 | 1012.2 |
| 20260505111016 | 52 | 125 | 0.9 | 2.6 | 0.00 | 0.00 | 0.00 | 60 | 1012.1 |
| 20260505110513 | 52 | 146 | 1.7 | 4.3 | 0.00 | 0.00 | 0.00 | 60 | 1012.1 |
| 20260505101931 | 53 | 150 | 0.9 | 2.6 | 0.00 | 0.00 | 0.00 | 61 | 1012.1 |
| 20260505101431 | 53 | 146 | 1.7 | 4.3 | 0.00 | 0.00 | 0.00 | 61 | 1012.1 |
| 20260505100931 | 53 | 132 | 1.7 | 4.3 | 0.00 | 0.00 | 0.00 | 62 | 1012.1 |
| 20260505100431 | 53 | 144 | 2.6 | 5.2 | 0.00 | 0.00 | 0.00 | 62 | 1012.1 |
| 20260505100202 | 53 | 133 | 2.6 | 5.2 | 0.00 | 0.00 | 0.00 | 62 | 1012.0 |
| 20260505095431 | 53 | 129 | 1.7 | 4.3 | 0.00 | 0.00 | 0.00 | 63 | 1012.0 |
| 20260505094930 | 53 | 179 | 1.7 | 3.5 | 0.00 | 0.00 | 0.00 | 62 | 1012.0 |
| 20260505094431 | 54 | 129 | 1.7 | 3.5 | 0.00 | 0.00 | 0.00 | 61 | 1012.1 |
| 20260505093931 | 54 | 179 | 1.7 | 3.5 | 0.00 | 0.00 | 0.00 | 62 | 1012.1 |
| 20260505093702 | 54 | 174 | 1.7 | 5.2 | 0.00 | 0.00 | 0.00 | 62 | 1012.1 |
| 20260505092933 | 54 | 113 | 1.7 | 5.2 | 0.00 | 0.00 | 0.00 | 61 | 1012.1 |
| 20260505092432 | 54 | 151 | 1.7 | 4.3 | 0.00 | 0.00 | 0.00 | 61 | 1012.1 |
| 20260505091926 | 55 | 159 | 2.6 | 5.2 | 0.00 | 0.00 | 0.00 | 60 | 1012.1 |
| 20260505091416 | 55 | 111 | 2.6 | 5.2 | 0.00 | 0.00 | 0.00 | 60 | 1012.1 |
| 20260505090911 | 55 | 146 | 2.6 | 4.3 | 0.00 | 0.00 | 0.00 | 59 | 1012.1 |
| 20260505090410 | 55 | 128 | 2.6 | 4.3 | 0.00 | 0.00 | 0.00 | 58 | 1012.0 |
| 20260505085910 | 55 | 130 | 1.7 | 5.2 | 0.00 | 0.00 | 0.00 | 58 | 1012.0 |
| 20260505085408 | 55 | 170 | 2.6 | 5.2 | 0.00 | 0.00 | 0.00 | 57 | 1012.0 |
| 20260505084909 | 55 | 118 | 1.7 | 5.2 | 0.00 | 0.00 | 0.00 | 57 | 1012.0 |
| 20260505084409 | 55 | 130 | 1.7 | 3.5 | 0.00 | 0.00 | 0.00 | 57 | 1012.0 |
| 20260505083907 | 55 | 174 | 2.6 | 3.5 | 0.00 | 0.00 | 0.00 | 57 | 1012.0 |
| 20260505083405 | 55 | 118 | 1.7 | 3.5 | 0.00 | 0.00 | 0.00 | 58 | 1012.1 |
| 20260505082905 | 55 | 128 | 1.7 | 4.3 | 0.00 | 0.00 | 0.00 | 58 | 1012.1 |
| 20260505082405 | 55 | 137 | 2.6 | 4.3 | 0.00 | 0.00 | 0.00 | 59 | 1012.1 |
| 20260505081905 | 55 | 170 | 1.7 | 3.5 | 0.00 | 0.00 | 0.00 | 59 | 1012.0 |
| 20260505081405 | 54 | 174 | 0.9 | 2.6 | 0.00 | 0.00 | 0.00 | 57 | 1012.1 |
| 20260505080900 | 55 | 136 | 0.0 | 2.6 | 0.00 | 0.00 | 0.00 | 56 | 1012.0 |
| 20260505080400 | 55 | 148 | 0.9 | 2.6 | 0.00 | 0.00 | 0.00 | 53 | 1012.0 |
| 20260505075901 | 55 | 144 | 0.9 | 2.6 | 0.00 | 0.00 | 0.00 | 52 | 1012.0 |
| 20260505075400 | 55 | 114 | 0.9 | 2.6 | 0.00 | 0.00 | 0.00 | 49 | 1012.1 |
| 20260505074905 | 56 | 115 | 1.7 | 2.6 | 0.00 | 0.00 | 0.00 | 49 | 1012.1 |
| 20260505074631 | 56 | 95 | 1.7 | 2.6 | 0.00 | 0.00 | 0.00 | 48 | 1012.1 |
| 20260505073859 | 56 | 98 | 1.7 | 2.6 | 0.00 | 0.00 | 0.00 | 48 | 1012.1 |
| 20260505073358 | 56 | 109 | 1.7 | 2.6 | 0.00 | 0.00 | 0.00 | 47 | 1012.1 |
| 20260505072853 | 57 | 108 | 1.7 | 3.5 | 0.00 | 0.00 | 0.00 | 47 | 1012.2 |
| 20260505072353 | 57 | 92 | 0.9 | 3.5 | 0.00 | 0.00 | 0.00 | 46 | 1012.1 |
| 20260505071852 | 58 | 90 | 0.0 | 0.0 | 0.00 | 0.00 | 0.00 | 46 | 1012.0 |
| 20260505071350 | 59 | 30 | 0.0 | 0.0 | 0.00 | 0.00 | 0.00 | 45 | 1012.0 |
| 20260505070848 | 59 | 1 | 0.9 | 5.2 | 0.00 | 0.00 | 0.00 | 44 | 1011.9 |
| 20260505070348 | 59 | 38 | 1.7 | 5.2 | 0.00 | 0.00 | 0.00 | 43 | 1011.9 |
| 20260505065847 | 59 | 59 | 1.7 | 6.1 | 0.00 | 0.00 | 0.00 | 43 | 1008.6 |
| 20260505065347 | 59 | 75 | 1.7 | 6.1 | 0.00 | 0.00 | 0.00 | 43 | 1005.4 |
| 20260505065118 | 59 | 54 | 1.7 | 4.3 | 0.00 | 0.00 | 0.00 | 43 | 992.9 |
| 20260505064345 | 59 | 76 | 1.7 | 4.3 | 0.00 | 0.00 | 0.00 | 43 | 1005.2 |
| 20260505063842 | 60 | 35 | 2.6 | 6.1 | 0.00 | 0.00 | 0.00 | 43 | 1005.2 |
| 20260505063615 | 60 | 31 | 2.6 | 6.1 | 0.00 | 0.00 | 0.00 | 42 | 1011.4 |
| 20260505062840 | 60 | 55 | 2.6 | 5.2 | 0.00 | 0.00 | 0.00 | 43 | 995.9 |
| 20260505062332 | 60 | 73 | 2.6 | 5.2 | 0.00 | 0.00 | 0.00 | 43 | 1011.5 |
| 20260505062058 | 60 | 44 | 2.6 | 5.2 | 0.00 | 0.00 | 0.00 | 43 | 1005.2 |
| 20260505061320 | 60 | 25 | 2.6 | 6.1 | 0.00 | 0.00 | 0.00 | 43 | 1008.3 |
| 20260505060814 | 60 | 51 | 2.6 | 6.1 | 0.00 | 0.00 | 0.00 | 43 | 1011.3 |
| 20260505060304 | 60 | 34 | 1.7 | 5.2 | 0.00 | 0.00 | 0.00 | 42 | 1011.4 |
| 20260505060028 | 60 | 50 | 2.6 | 5.2 | 0.00 | 0.00 | 0.00 | 42 | 1011.4 |
| 20260505055247 | 60 | 42 | 2.6 | 4.3 | 0.00 | 0.00 | 0.00 | 41 | 1011.4 |
| 20260505055008 | 61 | 83 | 2.6 | 7.0 | 0.00 | 0.00 | 0.00 | 42 | 1011.4 |
| 20260505054232 | 61 | 43 | 2.6 | 7.0 | 0.00 | 0.00 | 0.00 | 41 | 1011.4 |
| 20260505053956 | 61 | 46 | 2.6 | 6.1 | 0.00 | 0.00 | 0.00 | 41 | 1008.3 |
| 20260505053216 | 61 | 48 | 2.6 | 6.1 | 0.00 | 0.00 | 0.00 | 40 | 1011.4 |
| 20260505052705 | 62 | 32 | 2.6 | 6.1 | 0.00 | 0.00 | 0.00 | 40 | 1011.4 |
| 20260505052205 | 62 | 44 | 2.6 | 6.1 | 0.00 | 0.00 | 0.00 | 40 | 1011.4 |
| 20260505051929 | 62 | 32 | 1.7 | 5.2 | 0.00 | 0.00 | 0.00 | 41 | 1011.5 |
| 20260505051153 | 62 | 81 | 2.6 | 5.2 | 0.00 | 0.00 | 0.00 | 42 | 1011.5 |
| 20260505050651 | 62 | 57 | 1.7 | 5.2 | 0.00 | 0.00 | 0.00 | 42 | 1005.4 |
| 20260505050152 | 62 | 38 | 1.7 | 5.2 | 0.00 | 0.00 | 0.00 | 42 | 1011.5 |
| 20260505041414 | 64 | 316 | 3.5 | 8.7 | 0.00 | 0.00 | 0.00 | 45 | 1011.0 |
| 20260505040643 | 64 | 316 | 3.5 | 9.6 | 0.00 | 0.00 | 0.00 | 46 | 998.4 |
| 20260505040138 | 64 | 351 | 4.3 | 9.6 | 0.00 | 0.00 | 0.00 | 46 | 1004.5 |
| 20260505035902 | 64 | 298 | 4.3 | 9.6 | 0.00 | 0.00 | 0.00 | 46 | 1007.6 |
| 20260505035122 | 65 | 323 | 4.3 | 10.4 | 0.00 | 0.00 | 0.00 | 46 | 1010.6 |
| 20260505034616 | 65 | 302 | 6.1 | 12.2 | 0.00 | 0.00 | 0.00 | 46 | 1010.6 |
| 20260505034108 | 65 | 329 | 6.1 | 12.2 | 0.00 | 0.00 | 0.00 | 45 | 1010.6 |
| 20260505033832 | 66 | 313 | 5.2 | 11.3 | 0.00 | 0.00 | 0.00 | 43 | 1004.2 |